MET'MAP v2.0
soon released !

Expected late october,
this new version will be
more efficient, smarter,
and hosted on a brand new
server x3 powerfull...
...and still free !


Not compatible ?
Try the mobile version !

LOG IN : | Subscribe | Disclaimer | Who is Orbifly ? |
ICAO code :

TAF - LESO San Sebastian Fuenterrabia - 25 Nov 2020 06:59 UTC
Data Sources :     NOAA   


- Airport Elevation : 16 ft
- IATA code : EAS
- No reported NOTAMs.


LESO - San Sebastian Fuenterrabia

Latest METAR recorded : 2015/08/11 08:00 LESO 110800Z 00000KT CAVOK 21/18 Q1012
TAF TAF LESO
Valid from the 25 at 06:00 until the 26 at 06:00 UTC


250500Z 2506/2606 VRB05KT CAVOK TX17/2514Z TN06/2604Z
PROB40
TEMPO 2506/2513 20010KT
PROB30
TEMPO 2506/2511 20017G27KT

Source NOAA


MET'MAP, your aeronautical weather chart ! - Copyright ORBIFLY December 2007

Programming & Development : Alexandra Zaïnal
Co-Developer : Marc-Olivier Méhu
Technical & hardware support : Manuel Goepfert
Concept & Financing : Baudouin d'Aumeries